Time;durP1;ratioP1;P1;durP2;ratioP2;P2;SDS_P1;SDS_P2;PMS_P1;PMS_P2;Temp;Humidity;BMP_temperature;BMP_pressure;BME280_temperature;BME280_humidity;BME280_pressure;Samples;Min_cycle;Max_cycle;Signal;HPM_P1;HPM_P2
2022/05/14 00:01:05;;;;;;;1.42;0.77;;;;;;;13.02;nan;100973.06;5027520;28;20415;-81
2022/05/14 00:03:32;;;;;;;1.30;0.70;;;;;;;13.03;nan;100974.72;5034851;28;20033;-81
2022/05/14 00:06:03;;;;;;;1.70;0.90;;;;;;;12.95;nan;100980.81;5040810;28;20037;-80
2022/05/14 00:08:30;;;;;;;2.13;0.90;;;;;;;12.90;nan;100979.63;5041340;28;20542;-81
2022/05/14 00:13:40;;;;;;;2.22;1.20;;;;;;;12.84;nan;100978.41;5029341;28;20060;-80
2022/05/14 00:16:07;;;;;;;1.98;1.10;;;;;;;12.75;nan;100974.88;5035881;28;20558;-81
2022/05/14 00:18:34;;;;;;;1.83;1.08;;;;;;;12.69;nan;100969.38;5033185;28;20025;-80
2022/05/14 00:20:59;;;;;;;1.77;0.88;;;;;;;12.62;nan;100973.63;5035238;28;20044;-80
2022/05/14 00:23:26;;;;;;;2.42;0.75;;;;;;;12.54;nan;100972.56;5034151;28;20288;-81
2022/05/14 00:25:52;;;;;;;2.72;0.90;;;;;;;12.47;nan;100974.16;5041087;28;20045;-81
2022/05/14 00:28:17;;;;;;;2.33;1.38;;;;;;;12.42;nan;100971.16;5017845;28;20034;-79
2022/05/14 00:30:43;;;;;;;1.85;1.10;;;;;;;12.40;nan;100973.13;5022907;28;20037;-80
2022/05/14 00:33:08;;;;;;;2.47;1.00;;;;;;;12.37;nan;100981.38;5043424;28;20025;-81
2022/05/14 00:35:35;;;;;;;2.35;1.15;;;;;;;12.31;nan;100980.16;5035093;28;20122;-80
2022/05/14 00:38:01;;;;;;;1.60;0.98;;;;;;;12.27;nan;100983.25;5048285;28;20042;-80
2022/05/14 00:40:30;;;;;;;3.05;1.20;;;;;;;12.20;nan;100977.72;5026727;28;20057;-80
2022/05/14 00:42:55;;;;;;;1.40;0.73;;;;;;;12.16;nan;100978.19;5040793;28;20511;-81
2022/05/14 00:45:21;;;;;;;1.60;0.80;;;;;;;12.09;nan;100984.09;5042779;28;20095;-80
2022/05/14 00:47:51;;;;;;;1.38;0.80;;;;;;;12.05;nan;100984.53;5036702;28;20234;-80
2022/05/14 00:50:35;;;;;;;1.85;1.00;;;;;;;11.99;nan;100986.00;5037730;28;20318;-80
2022/05/14 00:53:04;;;;;;;1.80;1.00;;;;;;;11.98;nan;100983.47;5040975;28;20041;-80
2022/05/14 00:55:30;;;;;;;2.00;1.08;;;;;;;11.94;nan;100984.75;5039603;28;20026;-80
2022/05/14 00:57:56;;;;;;;1.85;0.90;;;;;;;11.89;nan;100983.41;5033923;28;20171;-80
2022/05/14 01:00:24;;;;;;;2.30;0.93;;;;;;;11.85;nan;100983.81;5023475;28;20077;-80
2022/05/14 01:02:49;;;;;;;1.77;0.90;;;;;;;11.82;nan;100981.44;5040971;28;20040;-80
2022/05/14 01:05:17;;;;;;;1.60;0.80;;;;;;;11.80;nan;100981.59;5036108;28;20406;-80
2022/05/14 01:07:43;;;;;;;2.10;1.00;;;;;;;11.76;nan;100982.06;5018128;28;20033;-80
2022/05/14 01:10:11;;;;;;;2.88;1.00;;;;;;;11.72;nan;100980.66;5036524;28;20040;-80
2022/05/14 01:12:43;;;;;;;1.67;0.80;;;;;;;11.64;nan;100974.28;5040401;28;20410;-80
2022/05/14 01:15:19;;;;;;;2.03;0.88;;;;;;;11.60;nan;100982.69;5019223;28;20040;-81
2022/05/14 01:17:46;;;;;;;1.95;1.15;;;;;;;11.53;nan;100969.19;5036238;28;20120;-79
2022/05/14 01:20:12;;;;;;;2.33;1.08;;;;;;;11.50;nan;100977.44;5041868;28;20072;-80
2022/05/14 01:22:59;;;;;;;2.20;1.00;;;;;;;11.47;nan;100975.09;5033948;28;20034;-80
2022/05/14 01:28:12;;;;;;;2.67;1.00;;;;;;;11.47;nan;100972.44;5031561;28;20075;-80
2022/05/14 01:30:45;;;;;;;2.88;0.90;;;;;;;11.46;nan;100976.06;5032952;28;20033;-80
2022/05/14 01:33:11;;;;;;;2.05;1.10;;;;;;;11.40;nan;100987.25;5027966;28;20037;-81
2022/05/14 01:35:39;;;;;;;2.00;1.00;;;;;;;11.37;nan;100985.72;5016650;28;20443;-80
2022/05/14 01:38:05;;;;;;;3.17;1.23;;;;;;;11.40;nan;100981.94;5032934;28;20044;-80
2022/05/14 01:40:31;;;;;;;2.03;1.00;;;;;;;11.40;nan;100981.94;5032314;28;20033;-81
2022/05/14 01:42:57;;;;;;;1.85;1.08;;;;;;;11.37;nan;100983.06;5024139;28;20456;-80
2022/05/14 01:45:22;;;;;;;1.40;0.80;;;;;;;11.36;nan;100983.22;5046884;28;20065;-79
2022/05/14 01:47:48;;;;;;;1.70;1.10;;;;;;;11.33;nan;100978.22;5040840;28;20033;-80
2022/05/14 01:50:14;;;;;;;1.52;0.93;;;;;;;11.30;nan;100976.69;5018494;28;20036;-80
2022/05/14 01:52:39;;;;;;;1.88;1.10;;;;;;;11.25;nan;100979.78;5041441;28;20025;-80
2022/05/14 01:55:05;;;;;;;2.28;1.17;;;;;;;11.19;nan;100977.69;5035802;28;20128;-80
2022/05/14 01:57:30;;;;;;;1.65;1.10;;;;;;;11.15;nan;100973.66;5048626;28;20029;-80
2022/05/14 01:59:56;;;;;;;2.15;1.00;;;;;;;11.13;nan;100977.44;5041056;28;20045;-81
2022/05/14 02:02:21;;;;;;;3.00;1.20;;;;;;;11.10;nan;100981.19;5020352;28;20034;-80
2022/05/14 02:04:46;;;;;;;2.53;1.38;;;;;;;11.05;nan;100971.03;5029823;28;20507;-81
2022/05/14 02:07:12;;;;;;;2.17;1.10;;;;;;;11.00;nan;100972.47;5037173;28;20033;-81
2022/05/14 02:09:37;;;;;;;2.67;1.60;;;;;;;10.97;nan;100970.94;5034404;28;20445;-80
2022/05/14 02:12:03;;;;;;;2.05;1.15;;;;;;;10.96;nan;100971.06;5027907;28;20029;-81
2022/05/14 02:14:28;;;;;;;2.47;1.30;;;;;;;10.94;nan;100978.31;5033349;28;20022;-80
2022/05/14 02:16:54;;;;;;;2.08;1.20;;;;;;;10.91;nan;100970.69;5037527;28;20097;-80
2022/05/14 02:19:19;;;;;;;2.10;1.20;;;;;;;10.90;nan;100975.13;5043377;28;20013;-81
2022/05/14 02:21:44;;;;;;;1.73;1.02;;;;;;;10.85;nan;100964.16;5034191;28;20034;-80
2022/05/14 02:24:10;;;;;;;1.88;1.00;;;;;;;10.80;nan;100969.03;5039652;28;20024;-81
2022/05/14 02:26:35;;;;;;;1.85;1.02;;;;;;;10.75;nan;100966.81;5041938;28;20052;-80
2022/05/14 02:29:00;;;;;;;1.75;1.20;;;;;;;10.73;nan;100974.06;5035573;28;20429;-80
2022/05/14 02:31:27;;;;;;;3.40;1.30;;;;;;;10.69;nan;100969.19;5042183;28;20077;-80
2022/05/14 02:33:53;;;;;;;3.95;1.55;;;;;;;10.62;nan;100963.63;5041677;28;20049;-80
2022/05/14 02:36:19;;;;;;;2.47;1.30;;;;;;;10.61;nan;100962.81;5040683;28;20060;-80
2022/05/14 02:38:44;;;;;;;2.47;1.10;;;;;;;10.56;nan;100967.69;5029602;28;20031;-79
2022/05/14 02:41:10;;;;;;;1.52;1.10;;;;;;;10.54;nan;100971.44;5038462;28;20033;-80
2022/05/14 02:43:36;;;;;;;1.88;1.05;;;;;;;10.53;nan;100962.66;5042749;28;20091;-80
2022/05/14 02:46:02;;;;;;;2.17;1.08;;;;;;;10.51;nan;100964.63;5034447;28;20041;-80
2022/05/14 02:48:28;;;;;;;1.80;1.00;;;;;;;10.50;nan;100970.88;5022283;28;20034;-80
2022/05/14 02:50:53;;;;;;;2.13;1.05;;;;;;;10.48;nan;100972.81;5025994;28;20083;-80
2022/05/14 02:53:18;;;;;;;1.88;0.80;;;;;;;10.49;nan;100973.69;5040651;28;20475;-81
2022/05/14 02:55:44;;;;;;;1.45;0.80;;;;;;;10.48;nan;100972.81;5040393;28;20138;-81
2022/05/14 02:58:09;;;;;;;1.83;1.00;;;;;;;10.46;nan;100977.41;5016630;28;20126;-80
2022/05/14 03:00:35;;;;;;;1.70;0.93;;;;;;;10.40;nan;100981.47;5033892;28;20129;-81
2022/05/14 03:03:00;;;;;;;1.67;1.00;;;;;;;10.38;nan;100982.56;5037654;28;20033;-81
2022/05/14 03:05:27;;;;;;;1.77;1.02;;;;;;;10.36;nan;100976.59;5038997;28;20029;-80
2022/05/14 03:07:52;;;;;;;1.92;0.90;;;;;;;10.37;nan;100986.22;5038279;28;20167;-80
2022/05/14 03:10:18;;;;;;;2.13;1.08;;;;;;;10.35;nan;100990.78;5037914;28;20079;-80
2022/05/14 03:12:43;;;;;;;1.75;0.88;;;;;;;10.32;nan;100988.41;5032445;28;20032;-81
2022/05/14 03:15:10;;;;;;;1.58;1.00;;;;;;;10.33;nan;100993.56;5038522;28;20116;-80
2022/05/14 03:17:36;;;;;;;1.35;0.85;;;;;;;10.34;nan;100987.28;5042343;28;20097;-81
2022/05/14 03:20:08;;;;;;;1.42;1.10;;;;;;;10.33;nan;100988.28;5041017;28;20517;-81
2022/05/14 03:22:35;;;;;;;2.53;1.10;;;;;;;10.28;nan;100992.28;5039320;28;20041;-81
2022/05/14 03:25:00;;;;;;;1.33;0.90;;;;;;;10.24;nan;100994.34;5051075;28;20067;-81
2022/05/14 03:27:25;;;;;;;1.88;1.00;;;;;;;10.19;nan;100996.59;5038037;28;20030;-81
2022/05/14 03:29:51;;;;;;;2.35;1.00;;;;;;;10.13;nan;100990.06;5039072;28;20056;-81
2022/05/14 03:32:17;;;;;;;3.03;0.90;;;;;;;10.10;nan;101002.69;5037591;28;20510;-81
2022/05/14 03:34:42;;;;;;;2.65;0.98;;;;;;;10.08;nan;101002.84;5036385;28;20037;-81
2022/05/14 03:37:07;;;;;;;1.85;0.95;;;;;;;10.07;nan;101000.31;5042772;28;20044;-81
2022/05/14 03:39:33;;;;;;;1.80;1.05;;;;;;;10.07;nan;100998.50;5022415;28;20037;-81
2022/05/14 03:41:58;;;;;;;1.40;0.80;;;;;;;10.05;nan;101000.44;5048691;28;20041;-80
2022/05/14 03:44:24;;;;;;;1.73;0.90;;;;;;;10.02;nan;100998.09;5043965;28;20176;-80
2022/05/14 03:46:49;;;;;;;2.17;1.15;;;;;;;10.00;nan;101003.50;5043348;28;20120;-80
2022/05/14 03:49:14;;;;;;;2.53;1.02;;;;;;;10.04;nan;101003.25;5037460;28;20057;-80
2022/05/14 03:51:39;;;;;;;2.53;1.20;;;;;;;10.04;nan;101003.25;5019529;28;20037;-80
2022/05/14 03:54:05;;;;;;;1.63;1.00;;;;;;;10.02;nan;101006.03;5040070;28;20037;-80
2022/05/14 03:56:31;;;;;;;2.25;1.20;;;;;;;9.99;nan;101009.78;5022296;28;20125;-80
2022/05/14 03:58:57;;;;;;;1.58;0.80;;;;;;;9.97;nan;101000.31;5035429;28;20033;-80
2022/05/14 04:01:22;;;;;;;2.90;1.00;;;;;;;9.94;nan;101008.53;5037694;28;20040;-80
2022/05/14 04:03:48;;;;;;;1.67;0.93;;;;;;;9.92;nan;101011.28;5029731;28;20057;-80
2022/05/14 04:06:14;;;;;;;2.08;1.10;;;;;;;9.93;nan;101012.94;5025575;28;20084;-80
2022/05/14 04:08:40;;;;;;;2.25;1.10;;;;;;;10.00;nan;101007.97;5036225;28;20123;-79
2022/05/14 04:11:06;;;;;;;2.58;1.10;;;;;;;10.08;nan;101005.50;5038715;28;20041;-80
2022/05/14 04:13:33;;;;;;;1.95;1.13;;;;;;;10.16;nan;101002.97;5034982;28;20025;-80
2022/05/14 04:15:58;;;;;;;1.75;1.00;;;;;;;10.20;nan;101007.03;5036675;28;20096;-79
2022/05/14 04:18:26;;;;;;;1.55;0.90;;;;;;;10.23;nan;101013.03;5040364;28;20037;-79
2022/05/14 04:20:57;;;;;;;1.92;1.10;;;;;;;10.23;nan;101019.13;5035272;28;20030;-79
2022/05/14 04:23:25;;;;;;;2.13;1.13;;;;;;;10.20;nan;101008.81;5013969;28;20040;-79
2022/05/14 04:25:51;;;;;;;1.83;1.00;;;;;;;10.20;nan;101004.38;5036644;28;20036;-79
2022/05/14 04:28:18;;;;;;;1.60;0.88;;;;;;;10.22;nan;101006.88;5039464;28;20037;-79
2022/05/14 04:30:45;;;;;;;1.38;0.80;;;;;;;10.23;nan;101002.44;5040349;28;20033;-80
2022/05/14 04:33:11;;;;;;;1.55;0.90;;;;;;;10.26;nan;100999.53;5035445;28;20037;-80
2022/05/14 04:35:37;;;;;;;1.80;0.90;;;;;;;10.35;nan;101006.66;5025795;28;20093;-80
2022/05/14 04:38:02;;;;;;;0.90;0.80;;;;;;;10.39;nan;101008.88;5025321;28;20056;-80
2022/05/14 04:40:28;;;;;;;0.93;0.70;;;;;;;10.44;nan;101007.59;5035917;28;20437;-80
2022/05/14 04:42:53;;;;;;;2.63;1.08;;;;;;;10.48;nan;101017.78;5027392;28;20040;-80
2022/05/14 04:45:19;;;;;;;1.77;1.00;;;;;;;10.53;nan;101012.06;5040552;28;20029;-81
2022/05/14 04:47:44;;;;;;;1.58;1.02;;;;;;;10.58;nan;101017.78;5036113;28;20422;-79
2022/05/14 04:50:11;;;;;;;1.85;1.20;;;;;;;10.60;nan;101027.22;5033383;28;20036;-80
2022/05/14 04:52:36;;;;;;;1.65;1.00;;;;;;;10.70;nan;101016.69;5033782;28;20036;-80
2022/05/14 04:55:02;;;;;;;2.60;1.00;;;;;;;10.79;nan;101020.25;5043609;28;20037;-80
2022/05/14 04:57:27;;;;;;;1.90;1.20;;;;;;;10.89;nan;101018.44;5033602;28;20030;-79
2022/05/14 04:59:53;;;;;;;1.42;0.90;;;;;;;11.00;nan;101012.16;5036240;28;20022;-79
2022/05/14 05:05:04;;;;;;;1.35;0.80;;;;;;;11.24;nan;101015.16;5036298;28;20037;-81
2022/05/14 05:07:29;;;;;;;1.63;1.08;;;;;;;11.33;nan;101018.75;5029865;28;20029;-78
2022/05/14 05:09:54;;;;;;;1.30;0.90;;;;;;;11.43;nan;101027.50;5030075;28;20065;-80
2022/05/14 05:12:20;;;;;;;1.55;1.00;;;;;;;11.53;nan;101030.09;5036136;28;20395;-79
2022/05/14 05:14:45;;;;;;;3.00;1.30;;;;;;;11.68;nan;101033.13;5015325;28;20060;-80
2022/05/14 05:17:11;;;;;;;2.63;0.90;;;;;;;11.90;nan;101034.59;5036246;28;20034;-80
2022/05/14 05:19:36;;;;;;;2.53;1.10;;;;;;;12.12;nan;101033.31;5038319;28;20060;-80
2022/05/14 05:22:03;;;;;;;1.95;1.08;;;;;;;12.32;nan;101041.97;5037905;28;20072;-80
2022/05/14 05:24:28;;;;;;;1.52;0.80;;;;;;;12.60;nan;101040.09;5030230;28;20037;-80
2022/05/14 05:26:53;;;;;;;1.50;0.95;;;;;;;13.01;nan;101036.94;5012368;28;20037;-80
2022/05/14 05:29:19;;;;;;;1.58;0.98;;;;;;;13.47;nan;101038.41;5030109;28;20458;-80
2022/05/14 05:31:44;;;;;;;2.83;1.13;;;;;;;13.94;nan;101035.31;5029632;28;20116;-80
2022/05/14 05:34:09;;;;;;;1.40;0.90;;;;;;;14.43;nan;101043.38;5036995;28;20287;-80
2022/05/14 05:36:35;;;;;;;2.03;1.00;;;;;;;14.95;nan;101041.44;5033547;28;20133;-80
2022/05/14 05:39:00;;;;;;;2.42;1.00;;;;;;;15.48;nan;101040.81;5021625;28;20590;-80
2022/05/14 05:41:25;;;;;;;1.45;0.80;;;;;;;15.89;nan;101047.88;5033744;28;20041;-80
2022/05/14 05:43:51;;;;;;;3.42;1.00;;;;;;;16.21;nan;101043.34;5022487;28;20116;-80
2022/05/14 05:46:16;;;;;;;1.88;1.00;;;;;;;16.60;nan;101045.94;5033226;28;20054;-80
2022/05/14 05:48:43;;;;;;;2.72;1.00;;;;;;;17.05;nan;101043.44;5024044;28;20029;-80
2022/05/14 05:51:09;;;;;;;4.35;1.10;;;;;;;17.41;nan;101044.38;5034677;28;20026;-80
2022/05/14 05:59:04;;;;;;;2.45;1.15;;;;;;;18.45;nan;101049.59;5036318;28;19924;-81
2022/05/14 06:01:30;;;;;;;1.60;0.90;;;;;;;18.85;nan;101039.28;5032457;28;20068;-81
2022/05/14 06:03:56;;;;;;;2.03;0.90;;;;;;;19.23;nan;101048.81;5034298;28;20040;-80
2022/05/14 06:06:22;;;;;;;2.28;1.10;;;;;;;19.46;nan;101049.38;5043227;28;20041;-80
2022/05/14 06:08:48;;;;;;;2.38;1.10;;;;;;;19.69;nan;101049.13;5033518;28;20091;-81
2022/05/14 06:11:14;;;;;;;2.20;1.13;;;;;;;19.78;nan;101048.94;5032980;28;20033;-80
2022/05/14 06:13:39;;;;;;;2.72;1.10;;;;;;;20.36;nan;101052.84;5035094;28;20410;-81
2022/05/14 06:16:05;;;;;;;2.33;1.05;;;;;;;20.46;nan;101062.38;5034513;28;20057;-81
2022/05/14 06:18:30;;;;;;;1.92;0.98;;;;;;;20.59;nan;101062.41;5039022;28;20091;-81
2022/05/14 06:20:55;;;;;;;2.35;0.88;;;;;;;20.86;nan;101062.47;5016546;28;20046;-81
2022/05/14 06:23:21;;;;;;;1.73;0.80;;;;;;;21.14;nan;101064.91;5035723;28;20048;-81
2022/05/14 06:25:46;;;;;;;2.38;1.05;;;;;;;21.48;nan;101057.66;5032983;28;20329;-81
2022/05/14 06:28:11;;;;;;;1.92;1.00;;;;;;;21.80;nan;101062.09;5038739;28;20030;-81
2022/05/14 06:30:41;;;;;;;;;;;;;;;22.09;nan;101070.66;5017621;28;20037;-80
2022/05/14 06:33:08;;;;;;;2.67;1.10;;;;;;;22.29;nan;101070.63;5033520;28;19917;-81
2022/05/14 06:35:35;;;;;;;2.42;0.80;;;;;;;22.35;nan;101074.31;5016920;28;20037;-81
2022/05/14 06:38:01;;;;;;;1.90;1.00;;;;;;;22.54;nan;101067.97;5032079;28;20032;-81
2022/05/14 06:40:27;;;;;;;2.47;1.00;;;;;;;22.88;nan;101063.13;5032732;28;20399;-80
2022/05/14 06:42:53;;;;;;;3.78;1.00;;;;;;;23.02;nan;101063.88;5036617;28;20034;-81
2022/05/14 06:45:18;;;;;;;2.10;1.00;;;;;;;22.98;nan;101063.53;5025667;28;20057;-81
2022/05/14 06:47:44;;;;;;;2.97;1.00;;;;;;;23.08;nan;101065.72;5027597;28;20487;-81
2022/05/14 06:50:10;;;;;;;2.60;1.10;;;;;;;23.17;nan;101061.69;5032338;28;20042;-81
2022/05/14 06:52:36;;;;;;;2.28;1.02;;;;;;;23.18;nan;101065.22;5038221;28;20029;-81
2022/05/14 06:55:02;;;;;;;1.88;0.90;;;;;;;23.11;nan;101074.19;5016366;28;20033;-81
2022/05/14 06:57:30;;;;;;;3.75;1.15;;;;;;;23.26;nan;101068.44;5047204;28;20724;-81
2022/05/14 06:59:56;;;;;;;1.80;0.90;;;;;;;23.39;nan;101080.16;5026776;28;20041;-81
2022/05/14 07:02:21;;;;;;;3.08;0.90;;;;;;;23.45;nan;101079.25;5032833;28;20116;-81
2022/05/14 07:07:31;;;;;;;2.92;1.10;;;;;;;23.61;nan;101088.66;5034728;28;20071;-81
2022/05/14 07:09:56;;;;;;;2.00;1.02;;;;;;;23.70;nan;101081.91;5034566;28;20117;-81
2022/05/14 07:12:22;;;;;;;2.38;1.00;;;;;;;23.96;nan;101086.19;5018779;28;20040;-80
2022/05/14 07:14:48;;;;;;;1.88;0.90;;;;;;;24.37;nan;101092.72;5041615;28;20048;-79
2022/05/14 07:17:15;;;;;;;2.90;0.90;;;;;;;24.70;nan;101092.25;5042019;28;20329;-79
2022/05/14 07:19:40;;;;;;;1.65;0.90;;;;;;;24.80;nan;101087.09;5041672;28;20577;-80
2022/05/14 07:22:06;;;;;;;1.73;0.77;;;;;;;24.95;nan;101078.50;5023101;28;20046;-79
2022/05/14 07:24:32;;;;;;;1.63;0.80;;;;;;;25.20;nan;101088.34;5040576;28;20923;-79
2022/05/14 07:27:00;;;;;;;2.85;0.93;;;;;;;25.60;nan;101085.72;5039413;28;20038;-80
2022/05/14 07:29:27;;;;;;;2.15;0.90;;;;;;;25.84;nan;101085.69;5024957;28;20506;-79
2022/05/14 07:31:53;;;;;;;1.90;0.90;;;;;;;26.35;nan;101089.41;5041125;28;20044;-79
2022/05/14 07:34:19;;;;;;;1.63;0.80;;;;;;;26.60;nan;101088.22;5023033;28;20032;-79
2022/05/14 07:36:57;;;;;;;2.20;1.00;;;;;;;26.81;nan;101090.22;5040263;28;20037;-79
2022/05/14 07:39:27;;;;;;;2.70;1.23;;;;;;;27.12;nan;101085.28;5038749;28;20552;-80
2022/05/14 07:41:56;;;;;;;1.90;1.00;;;;;;;27.01;nan;101084.31;5027852;28;20045;-80
2022/05/14 07:44:25;;;;;;;2.60;1.02;;;;;;;26.70;nan;101088.44;5036971;28;20036;-80
2022/05/14 07:46:52;;;;;;;3.30;1.30;;;;;;;26.69;nan;101081.34;5041207;28;20041;-78
2022/05/14 07:49:21;;;;;;;2.20;1.00;;;;;;;26.74;nan;101078.72;5041576;28;20037;-80
2022/05/14 07:51:46;;;;;;;3.20;1.10;;;;;;;26.49;nan;101077.19;5036789;28;20048;-79
2022/05/14 07:54:12;;;;;;;2.28;1.05;;;;;;;26.63;nan;101068.78;5035939;28;20037;-81
2022/05/14 07:56:38;;;;;;;2.75;0.90;;;;;;;26.82;nan;101075.59;5034841;28;20128;-80
2022/05/14 07:59:05;;;;;;;3.47;1.17;;;;;;;27.24;nan;101074.34;5036561;28;20033;-79
2022/05/14 08:01:30;;;;;;;3.10;1.00;;;;;;;27.79;nan;101069.91;5024387;28;20034;-81
2022/05/14 08:03:56;;;;;;;4.18;1.55;;;;;;;27.82;nan;101074.88;5049743;28;20415;-80
2022/05/14 08:06:22;;;;;;;4.65;1.20;;;;;;;27.55;nan;101062.00;5042374;28;20067;-80
2022/05/14 08:08:48;;;;;;;2.92;1.00;;;;;;;27.74;nan;101065.22;5023745;28;20052;-81
2022/05/14 08:11:13;;;;;;;2.17;1.00;;;;;;;27.98;nan;101071.25;5023859;28;20033;-79
2022/05/14 08:13:40;;;;;;;2.03;1.00;;;;;;;28.17;nan;101069.84;5029421;28;20044;-80
2022/05/14 08:16:05;;;;;;;2.47;1.08;;;;;;;28.38;nan;101056.44;5042401;28;20046;-80
2022/05/14 08:18:32;;;;;;;3.47;0.90;;;;;;;28.53;nan;101061.22;5040056;28;20061;-80
2022/05/14 08:24:29;;;;;;;3.67;1.70;;;;;;;29.17;nan;101061.19;5035476;28;20072;-80
2022/05/14 08:26:26;;;;;;;2.60;1.00;;;;;;;29.96;nan;101053.09;5033119;28;20041;-80
2022/05/14 08:28:51;;;;;;;2.10;1.00;;;;;;;30.24;nan;101051.81;5039578;28;20022;-79
2022/05/14 08:31:16;;;;;;;4.18;1.35;;;;;;;29.53;nan;101053.22;5031880;28;20447;-80
2022/05/14 08:33:42;;;;;;;2.90;0.93;;;;;;;29.83;nan;101054.44;5015917;28;20530;-80
2022/05/14 08:36:07;;;;;;;3.00;1.20;;;;;;;30.23;nan;101056.44;5048163;28;20337;-81
2022/05/14 08:38:32;;;;;;;3.70;1.33;;;;;;;30.73;nan;101059.50;5016604;28;20029;-80
2022/05/14 08:40:59;;;;;;;3.63;1.30;;;;;;;30.60;nan;101049.13;5033586;28;20296;-80
2022/05/14 08:43:24;;;;;;;2.42;1.10;;;;;;;30.92;nan;101059.81;5038027;28;20147;-79
2022/05/14 08:45:49;;;;;;;2.43;1.10;;;;;;;30.93;nan;101063.34;5037726;28;20058;-80
2022/05/14 08:48:34;;;;;;;2.40;1.23;;;;;;;30.98;nan;101061.41;5036482;28;20047;-81
2022/05/14 08:51:08;;;;;;;3.15;1.00;;;;;;;31.42;nan;101057.25;5032595;28;20100;-81
2022/05/14 08:53:36;;;;;;;1.88;1.13;;;;;;;32.01;nan;101052.88;5034551;28;20037;-80
2022/05/14 08:56:13;;;;;;;2.47;0.93;;;;;;;32.59;nan;101050.31;5015237;28;20034;-80
2022/05/14 08:58:52;;;;;;;3.67;1.20;;;;;;;32.90;nan;101047.31;5033009;28;20033;-80
2022/05/14 09:01:22;;;;;;;3.58;1.15;;;;;;;33.05;nan;101057.31;5016223;28;20509;-81
2022/05/14 09:03:47;;;;;;;3.30;1.38;;;;;;;33.15;nan;101058.00;5033381;28;20045;-83
2022/05/14 09:06:13;;;;;;;1.77;0.88;;;;;;;33.68;nan;101057.16;5015490;28;20143;-81
2022/05/14 09:08:40;;;;;;;4.32;1.42;;;;;;;33.63;nan;101054.44;5018997;28;20044;-82
2022/05/14 09:11:16;;;;;;;2.92;1.05;;;;;;;34.23;nan;101048.44;5015290;28;20095;-81
2022/05/14 09:13:45;;;;;;;2.63;1.10;;;;;;;33.58;nan;101057.25;5033920;28;20037;-81
2022/05/14 09:16:30;;;;;;;2.42;0.93;;;;;;;33.80;nan;101042.97;5029706;28;20080;-81
2022/05/14 09:18:56;;;;;;;2.72;1.10;;;;;;;34.16;nan;101042.50;5034348;28;20041;-80
2022/05/14 09:21:26;;;;;;;3.08;1.10;;;;;;;34.58;nan;101049.75;5038991;28;20029;-81
2022/05/14 09:23:56;;;;;;;3.92;1.33;;;;;;;34.81;nan;101041.72;5030343;28;20120;-81
2022/05/14 09:26:27;;;;;;;3.85;1.38;;;;;;;35.37;nan;101037.09;5033535;28;20045;-81
2022/05/14 09:28:58;;;;;;;2.35;1.10;;;;;;;35.07;nan;101040.13;5033213;28;20044;-81
2022/05/14 09:31:36;;;;;;;1.33;0.80;;;;;;;35.39;nan;101037.59;5031737;28;20421;-81
2022/05/14 09:34:15;;;;;;;1.88;0.80;;;;;;;35.99;nan;101039.31;5031569;28;20068;-81
2022/05/14 09:36:42;;;;;;;1.67;0.82;;;;;;;36.17;nan;101034.81;5036360;28;20037;-81
2022/05/14 09:39:15;;;;;;;3.00;0.90;;;;;;;36.10;nan;101044.31;5026038;28;20417;-81
2022/05/14 09:41:49;;;;;;;1.50;0.80;;;;;;;36.21;nan;101041.31;5025749;28;20425;-82
2022/05/14 09:44:17;;;;;;;;;;;;;;;36.33;nan;101047.09;5014103;28;20556;-81
2022/05/14 09:46:43;;;;;;;1.42;0.73;;;;;;;36.96;nan;101042.44;5031737;28;19960;-81
2022/05/14 09:49:09;;;;;;;2.53;1.02;;;;;;;36.97;nan;101041.31;5039824;28;20037;-81
2022/05/14 09:51:49;;;;;;;3.47;1.05;;;;;;;37.44;nan;101040.84;5022633;28;20025;-82
2022/05/14 09:54:18;;;;;;;;;;;;;;;37.59;nan;101032.97;5045147;28;20029;-82
2022/05/14 09:56:49;;;;;;;2.80;1.10;;;;;;;38.16;nan;101032.03;5020752;28;20294;-82
2022/05/14 09:59:45;;;;;;;2.78;1.08;;;;;;;37.83;nan;101032.50;5038939;28;20055;-82
2022/05/14 10:02:18;;;;;;;3.33;1.15;;;;;;;37.89;nan;101027.63;5030367;28;20037;-82
2022/05/14 10:05:01;;;;;;;3.70;1.10;;;;;;;38.28;nan;101036.88;5032979;28;20808;-81
2022/05/14 10:07:56;;;;;;;4.63;1.00;;;;;;;37.35;nan;101025.09;5022707;28;20052;-81
2022/05/14 10:10:46;;;;;;;2.92;0.90;;;;;;;37.66;nan;101023.38;5024670;28;20053;-81
2022/05/14 10:13:47;;;;;;;1.73;0.77;;;;;;;37.32;nan;101022.16;5022259;28;20117;-82
2022/05/14 10:16:25;;;;;;;2.05;0.85;;;;;;;37.96;nan;101018.84;5018787;28;20288;-82
2022/05/14 10:19:26;;;;;;;2.33;0.73;;;;;;;38.61;nan;101011.47;5037770;28;20068;-81
2022/05/14 10:22:17;;;;;;;1.67;0.60;;;;;;;38.64;nan;101019.94;5028467;28;20523;-81
2022/05/14 10:28:04;;;;;;;2.17;0.80;;;;;;;38.71;nan;101018.59;5038421;28;20048;-81
2022/05/14 10:30:39;;;;;;;2.25;0.90;;;;;;;38.77;nan;101012.56;5037415;28;20037;-82
2022/05/14 10:33:12;;;;;;;2.80;0.80;;;;;;;39.19;nan;101017.41;5035740;28;20404;-82
2022/05/14 10:36:05;;;;;;;1.52;0.80;;;;;;;39.01;nan;101014.75;5016313;28;20033;-82
2022/05/14 10:38:53;;;;;;;2.20;0.77;;;;;;;38.82;nan;101006.03;5029023;28;20506;-81
2022/05/14 10:41:42;;;;;;;1.75;0.80;;;;;;;38.48;nan;101006.97;5029403;28;20435;-83
2022/05/14 10:44:29;;;;;;;2.88;0.88;;;;;;;38.59;nan;101002.69;5010878;28;20397;-82
2022/05/14 10:46:59;;;;;;;6.68;1.00;;;;;;;38.77;nan;101004.25;5033771;28;20033;-82
2022/05/14 10:49:39;;;;;;;2.60;0.90;;;;;;;39.62;nan;101005.31;5037501;28;20041;-82
2022/05/14 10:52:10;;;;;;;1.20;0.60;;;;;;;40.09;nan;101005.06;5036172;28;20277;-82
2022/05/14 10:54:36;;;;;;;1.55;0.70;;;;;;;40.40;nan;100993.53;5033844;28;20503;-82
2022/05/14 10:57:24;;;;;;;2.95;0.80;;;;;;;40.53;nan;101003.50;5018386;28;20071;-82
2022/05/14 11:00:02;;;;;;;1.85;0.73;;;;;;;40.71;nan;100993.06;5045619;28;20053;-81
2022/05/14 11:02:33;;;;;;;2.53;0.82;;;;;;;40.31;nan;100988.09;5041073;28;20121;-82
2022/05/14 11:05:00;;;;;;;1.63;0.80;;;;;;;40.27;nan;100995.47;5035779;28;20095;-82
2022/05/14 11:07:29;;;;;;;2.22;0.80;;;;;;;40.19;nan;100985.28;5034470;28;20045;-82
2022/05/14 11:10:16;;;;;;;1.80;0.80;;;;;;;40.80;nan;100986.56;5040121;28;20044;-82
2022/05/14 11:12:42;;;;;;;4.25;0.82;;;;;;;41.28;nan;100984.94;5022200;28;20267;-82
2022/05/14 11:15:24;;;;;;;2.08;0.73;;;;;;;41.95;nan;100983.41;5017084;28;20038;-82
2022/05/14 11:18:18;;;;;;;3.03;0.90;;;;;;;42.16;nan;100991.50;5040049;28;20061;-83
2022/05/14 11:20:59;;;;;;;2.00;0.70;;;;;;;41.28;nan;100988.53;5019210;28;20313;-82
2022/05/14 11:23:25;;;;;;;2.88;1.00;;;;;;;40.06;nan;100980.84;5032786;28;20561;-82
2022/05/14 11:26:12;;;;;;;3.85;0.95;;;;;;;39.89;nan;100979.03;5034887;28;20080;-82
2022/05/14 11:28:38;;;;;;;2.90;0.80;;;;;;;40.69;nan;100978.72;5034182;28;20087;-81
2022/05/14 11:31:24;;;;;;;1.80;0.80;;;;;;;41.94;nan;100978.16;5036629;28;20402;-82
2022/05/14 11:33:53;;;;;;;1.75;0.70;;;;;;;42.03;nan;100981.63;5032658;28;20033;-81
2022/05/14 11:36:28;;;;;;;1.27;0.63;;;;;;;42.30;nan;100979.97;5021617;28;20036;-81
2022/05/14 11:39:22;;;;;;;1.58;0.70;;;;;;;43.06;nan;100977.09;5043879;28;20182;-80
2022/05/14 11:41:49;;;;;;;1.77;0.90;;;;;;;43.31;nan;100980.47;5018553;28;20477;-81
2022/05/14 11:44:31;;;;;;;3.13;0.90;;;;;;;42.28;nan;100976.72;5034236;28;20052;-80
2022/05/14 11:46:58;;;;;;;3.38;1.00;;;;;;;42.20;nan;100974.94;5016075;28;20041;-81
2022/05/14 11:49:38;;;;;;;2.47;1.08;;;;;;;42.40;nan;100973.91;5028599;28;20183;-80
2022/05/14 11:52:07;;;;;;;;;;;;;;;41.57;nan;100978.31;5034644;28;20040;-80
2022/05/14 11:54:53;;;;;;;2.45;0.90;;;;;;;42.14;nan;100979.94;5031280;28;19917;-81
2022/05/14 11:57:28;;;;;;;2.38;0.90;;;;;;;42.29;nan;100981.13;5036083;28;20139;-81
2022/05/14 12:00:09;;;;;;;1.80;0.70;;;;;;;42.88;nan;100967.53;5034729;28;20041;-81
2022/05/14 12:02:49;;;;;;;2.40;0.88;;;;;;;42.96;nan;100963.75;5003108;28;20113;-81
2022/05/14 12:05:39;;;;;;;2.08;0.90;;;;;;;41.82;nan;100969.91;5016658;28;20089;-80
2022/05/14 12:08:13;;;;;;;1.73;0.90;;;;;;;41.42;nan;100971.50;5005085;28;20567;-81
2022/05/14 12:11:24;;;;;;;4.32;1.33;;;;;;;40.18;nan;100955.94;5015804;28;20038;-81
2022/05/14 12:14:10;;;;;;;4.05;1.10;;;;;;;37.92;nan;100959.88;5013059;28;20443;-80
2022/05/14 12:16:51;;;;;;;2.30;1.08;;;;;;;36.91;nan;100957.94;5016227;28;20034;-81